• Join FlightAware (Why Join?)
  • Login
  • US Flag 
11:40PM EDT


 

Airport Tracker/Info


-or-


 

Live Flight TrackerFlight Track Log ✈ UAL33 ✈ 13-Jun-2013 ✈ KORD - KIAH

Flight Track Log - Related Links

Times and Time Zones

All times are in EDT time to prevent confusion due to time zone crossing. See the UAL33 flight status page for this flight to view local times or setup timezone preferences in your user account.

Time Position Orientation Groundspeed Altitude Reporting Facility
EDT Latitude Longitude Course Direction KTS MPH feet Rate Location/Type
09:42PM 41.9790 -87.9120 351° North 11 13  Level FlightAware
09:43PM 41.9800 -87.9120 360° North 12 14 120 Level FlightAware
09:43PM 41.9810 -87.9120 360° North 18 21 120 Level FlightAware
09:44PM 41.9810 -87.9130 270° West 24 28 120 Level FlightAware
09:44PM 41.9800 -87.9130 180° South 22 25 120 Level FlightAware
09:45PM 41.9780 -87.9130 180° South 25 29 120 Level FlightAware
09:46PM 41.9760 -87.9130 180° South 25 29 180 Level FlightAware
09:48PM 41.7731 -87.9385 200° South  Level FlightAware Approximate
09:49PM 41.6704 -87.9688 187° South  Level FlightAware Approximate
09:49PM 41.9750 -87.9160 187° South 88 101  Level FlightAware
09:50PM 41.9890 -87.9320 320° Northwest 163 188 900 2,400 Climbing FlightAware
09:50PM 42.0080 -87.9460 331° Northwest 167 192 2,300 2,520 Climbing FlightAware
09:51PM 42.0230 -87.9340 31° Northeast 205 236 3,000 2,160 Climbing FlightAware
09:51PM 42.0270 -87.9180 71° East 236 272 3,500 1,920 Climbing FlightAware
09:52PM 42.0140 -87.8730 111° Southeast 290 334 4,600 2,940 Climbing FlightAware
09:52PM 41.9790 -87.8560 160° South 297 342 6,300 4,440 Climbing FlightAware
09:52PM 41.9420 -87.8650 190° South 301 346 8,100 3,660 Climbing FlightAware
09:53PM 41.9100 -87.8720 189° South 310 357 9,500 3,120 Climbing FlightAware
09:53PM 41.8420 -87.8930 193° South 348 400 11,700 3,240 Climbing FlightAware
09:54PM 41.7720 -87.9150 193° South 363 418 14,200 2,400 Climbing FlightAware
09:55PM 41.7080 -87.9350 193° South 364 419 15,100 840 Climbing FlightAware
09:55PM 41.6950 -87.9390 193° South 373 429 15,300 3,060 Climbing FlightAware
09:56PM 41.5640 -87.9810 193° South 402 463 19,400 4,080 Climbing FlightAware
09:57PM 41.4790 -88.0070 193° South 419 482 21,700 2,880 Climbing FlightAware
09:58PM 41.4010 -88.0320 194° South 432 497 23,600 2,760 Climbing FlightAware
09:58PM 41.3250 -88.0570 194° South 440 506 25,400 2,460 Climbing FlightAware
09:59PM 41.2390 -88.0870 195° South 458 527 27,100 2,340 Climbing FlightAware
10:00PM 41.1490 -88.1130 192° South 471 542 28,800 1,980 Climbing FlightAware
10:00PM 41.0540 -88.1400 192° South 493 567 30,000 1,680 Climbing FlightAware
10:01PM 40.9630 -88.1650 192° South 508 585 31,200 1,860 Climbing FlightAware
10:02PM 40.8740 -88.1920 193° South 514 592 32,400 1,800 Climbing FlightAware
10:03PM 40.7710 -88.2470 202° Southwest 494 568 33,900 1,680 Climbing FlightAware
10:03PM 40.6860 -88.3070 208° Southwest 505 581 35,000 1,680 Climbing FlightAware
10:04PM 40.5990 -88.3680 208° Southwest 504 580 36,300 2,040 Climbing FlightAware
10:05PM 40.5130 -88.4290 208° Southwest 495 570 37,900 1,920 Climbing FlightAware
10:05PM 40.4360 -88.4830 208° Southwest 491 565 38,900 1,380 Climbing FlightAware
10:06PM 40.3410 -88.5490 208° Southwest 491 565 39,900 720 Climbing FlightAware
10:07PM 40.2600 -88.6060 208° Southwest 493 567 40,000 60 Climbing FlightAware
10:07PM 40.1810 -88.6620 208° Southwest 494 568 40,000  Level FlightAware
10:08PM 40.0930 -88.7220 208° Southwest 498 573 40,000  Level FlightAware
10:09PM 40.0060 -88.7830 208° Southwest 497 572 40,000  Level FlightAware
10:10PM 39.9190 -88.8430 208° Southwest 494 568 40,000  Level FlightAware
10:10PM 39.8310 -88.9040 208° Southwest 490 564 40,000  Level FlightAware
10:11PM 39.7290 -88.9720 207° Southwest 490 564 40,000  Level FlightAware
10:12PM 39.6380 -89.0360 208° Southwest 492 566 40,000  Level FlightAware
10:13PM 39.5540 -89.0940 208° Southwest 493 567 40,000  Level FlightAware
10:13PM 39.4700 -89.1500 207° Southwest 493 567 40,000  Level FlightAware
10:14PM 39.3810 -89.2110 208° Southwest 493 567 40,000  Level FlightAware
10:15PM 39.3070 -89.2610 208° Southwest 492 566 40,000  Level FlightAware
10:15PM 39.2660 -89.2890 208° Southwest 492 566 40,000  Level FlightAware
10:18PM 38.9520 -89.5000 208° Southwest 495 570 40,000  Level FlightAware
10:19PM 38.8200 -89.5880 207° Southwest 491 565 40,000  Level FlightAware
10:19PM 38.7390 -89.6420 207° Southwest 488 562 40,000  Level FlightAware
10:20PM 38.6510 -89.7010 208° Southwest 487 560 40,000  Level FlightAware
10:21PM 38.5770 -89.7490 207° Southwest 487 560 40,000  Level FlightAware
10:21PM 38.4880 -89.8080 207° Southwest 488 562 40,000  Level FlightAware
10:22PM 38.4100 -89.8590 207° Southwest 488 562 40,000  Level FlightAware
10:23PM 38.2900 -89.9380 207° Southwest 489 563 40,000  Level FlightAware
10:24PM 38.2000 -89.9970 207° Southwest 489 563 40,000  Level FlightAware
10:25PM 38.0960 -90.0640 207° Southwest 487 560 40,000  Level FlightAware
10:25PM 38.0060 -90.1230 207° Southwest 484 557 40,000  Level FlightAware
10:26PM 37.9360 -90.1690 207° Southwest 484 557 40,000  Level FlightAware
10:27PM 37.8540 -90.2210 207° Southwest 477 549 40,000  Level FlightAware
10:27PM 37.7670 -90.2780 207° Southwest 476 548 40,000  Level FlightAware
10:28PM 37.7070 -90.3170 207° Southwest 476 548 40,000  Level FlightAware
10:29PM 37.6270 -90.3680 207° Southwest 476 548 40,000  Level FlightAware
10:29PM 37.5670 -90.4070 207° Southwest 476 548 40,000  Level FlightAware
10:30PM 37.5470 -90.4200 207° Southwest 476 548 40,000  Level FlightAware
10:31PM 37.3540 -90.5420 207° Southwest 466 536 40,000  Level FlightAware
10:32PM 37.2700 -90.5960 207° Southwest 464 534 40,000  Level FlightAware
10:32PM 37.1890 -90.6470 207° Southwest 465 535 40,000  Level FlightAware
10:33PM 37.1160 -90.6930 207° Southwest 467 537 40,000  Level FlightAware
10:34PM 37.0270 -90.7490 207° Southwest 468 539 40,000  Level FlightAware
10:34PM 36.9460 -90.8000 207° Southwest 467 537 40,000  Level FlightAware
10:36PM 36.8260 -90.8760 207° Southwest 461 531 40,000  Level FlightAware
10:36PM 36.7410 -90.9280 206° Southwest 458 527 40,000  Level FlightAware
10:37PM 36.6670 -90.9750 207° Southwest 455 524 40,000  Level FlightAware
10:38PM 36.5980 -91.0180 207° Southwest 453 521 40,000  Level FlightAware
10:38PM 36.5040 -91.0760 206° Southwest 448 516 40,000  Level FlightAware
10:39PM 36.4350 -91.1190 207° Southwest 450 518 40,000  Level FlightAware
10:40PM 36.3500 -91.1720 207° Southwest 449 517 40,000  Level FlightAware
10:43PM 36.2320 -91.2440 206° Southwest 450 518 40,000  Level FlightAware
10:44PM 35.8910 -91.4540 207° Southwest 450 518 40,000  Level FlightAware
10:45PM 35.8110 -91.5020 206° Southwest 450 518 40,000  Level FlightAware
10:45PM 35.7510 -91.5380 206° Southwest 450 518 40,000  Level FlightAware
10:46PM 35.6760 -91.5830 206° Southwest 450 518 40,000  Level FlightAware
10:47PM 35.6090 -91.6230 206° Southwest 450 518 40,000  Level FlightAware
10:47PM 35.5050 -91.6840 206° Southwest 460 529 40,000  Level FlightAware
10:48PM 35.4240 -91.7170 198° South 461 531 40,000  Level FlightAware
10:49PM 35.3580 -91.7430 198° South 461 531 40,000  Level FlightAware
10:49PM 35.2910 -91.7240 167° South 470 541 40,000  Level FlightAware
10:50PM 35.2040 -91.7220 179° South 470 541 40,000  Level FlightAware
10:50PM 35.1320 -91.7200 179° South 470 541 40,000  Level FlightAware
10:51PM 35.0660 -91.7190 179° South 470 541 40,000  Level FlightAware
10:52PM 34.9750 -91.7170 179° South 470 541 40,000  Level FlightAware
10:52PM 34.9070 -91.7150 179° South 470 541 40,000  Level FlightAware
10:53PM 34.8160 -91.7130 179° South 470 541 40,000  Level FlightAware
10:54PM 34.7520 -91.7120 179° South 470 541 40,000  Level FlightAware
10:55PM 34.6520 -91.7100 179° South 470 541 40,000  Level FlightAware
10:55PM 34.5690 -91.7080 179° South 470 541 40,000  Level FlightAware
10:56PM 34.4820 -91.7060 179° South 470 541 40,000  Level FlightAware
10:57PM 34.4190 -91.7050 179° South 470 541 40,000  Level FlightAware
10:58PM 34.3300 -91.7030 179° South 470 541 40,000  Level FlightAware
10:58PM 34.2640 -91.7020 179° South 470 541 40,000  Level FlightAware
10:59PM 34.1710 -91.7000 179° South 470 541 40,000  Level FlightAware
11:00PM 33.8708 -92.0833 179° South 461 531 40,000  Level Memphis Center
11:02PM 33.6994 -92.1358 194° South 459 528 40,000  Level Fort Worth Center
11:03PM 33.5614 -92.1814 195° South 459 528 40,000  Level Fort Worth Center
11:04PM 33.4378 -92.2211 195° South 464 534 40,000  Level Fort Worth Center
11:05PM 33.3142 -92.2583 194° South 470 541 40,000  Level Fort Worth Center
11:06PM 33.1886 -92.3003 196° South 470 541 40,000  Level Fort Worth Center
11:11PM 32.4939 -92.5165 196° South 463 533 40,000  Level FlightAware ADS-B
11:12PM 32.3641 -92.5568 195° South 461 531 40,000  Level FlightAware ADS-B
11:14PM 32.1827 -92.6360 200° South 473 544 40,000  Level FlightAware ADS-B
11:14PM 32.1293 -92.6840 217° Southwest 485 558 40,000  Level FlightAware ADS-B
11:15PM 32.0730 -92.7342 217° Southwest 491 565 40,000  Level FlightAware ADS-B
11:15PM 32.0145 -92.7862 217° Southwest 492 566 40,000  Level FlightAware ADS-B
11:16PM 31.9577 -92.8366 217° Southwest 494 568 40,000  Level FlightAware ADS-B
11:17PM 31.8698 -92.9146 217° Southwest 494 568 40,000  Level FlightAware ADS-B
11:17PM 31.8144 -92.9636 217° Southwest 485 558 40,000  Level FlightAware ADS-B
11:18PM 31.7544 -93.0166 217° Southwest 477 549 40,000 -2,520 Level FlightAware ADS-B
11:21PM 31.3795 -93.3457 217° Southwest 483 556 30,200 -2,880 Descending FlightAware ADS-B
11:22PM 31.3255 -93.3926 217° Southwest 475 547 29,000 -2,100 Descending FlightAware ADS-B
11:22PM 31.2728 -93.4385 217° Southwest 466 536 28,100 -1,620 Descending FlightAware ADS-B
11:23PM 31.2211 -93.4839 217° Southwest 458 527 27,400 -1,200 Descending FlightAware ADS-B
11:23PM 31.1701 -93.5283 217° Southwest 457 526 26,900 -1,140 Descending FlightAware ADS-B
11:24PM 31.1187 -93.5729 217° Southwest 455 524 26,300 -1,080 Descending FlightAware ADS-B
11:24PM 31.0515 -93.6313 217° Southwest 449 517 25,700 -900 Descending FlightAware ADS-B
11:25PM 31.0017 -93.6743 217° Southwest 444 511 25,300 -780 Descending FlightAware ADS-B
11:25PM 30.9505 -93.7185 217° Southwest 439 505 24,900 -900 Descending FlightAware ADS-B
11:26PM 30.9011 -93.7611 217° Southwest 436 502 24,400 -900 Descending FlightAware ADS-B
11:26PM 30.8527 -93.8029 217° Southwest 432 497 24,000 -420 Descending FlightAware ADS-B
11:27PM 30.8038 -93.8449 216° Southwest 431 496 24,000 -120 Level FlightAware ADS-B
11:27PM 30.7555 -93.8864 216° Southwest 432 497 23,900 -1,140 Descending FlightAware ADS-B
11:28PM 30.7057 -93.9292 216° Southwest 430 495 22,900 -2,040 Descending FlightAware ADS-B
11:28PM 30.6567 -93.9713 216° Southwest 425 489 21,800 -2,160 Descending FlightAware ADS-B
11:29PM 30.5609 -94.0533 216° Southwest 415 478 19,600 -2,220 Descending FlightAware ADS-B
11:30PM 30.4688 -94.1318 216° Southwest 407 468 17,400 -2,220 Descending FlightAware ADS-B
11:31PM 30.4557 -94.1434 217° Southwest 406 467 17,100 -2,160 Descending FlightAware ADS-B
11:31PM 30.4292 -94.1742 228° Southwest 404 465 16,400 -2,040 Descending FlightAware ADS-B
11:31PM 30.4214 -94.1862 233° Southwest 402 463 16,200 -1,800 Descending FlightAware ADS-B
11:31PM 30.4114 -94.2043 237° Southwest 400 460 15,900 -2,040 Descending FlightAware ADS-B
11:32PM 30.3594 -94.3172 242° Southwest 387 445 13,800 -2,340 Descending FlightAware ADS-B
11:33PM 30.3096 -94.4247 242° Southwest 365 420 11,300 -1,920 Descending FlightAware ADS-B
11:34PM 30.2656 -94.5200 242° Southwest 319 367 10,000 -1,320 Descending FlightAware ADS-B
11:34PM 30.2550 -94.5427 242° Southwest 317 365 9,700 -1,200 Descending FlightAware ADS-B
11:35PM 30.2240 -94.6090 241° Southwest 302 348 8,800 -1,200 Descending FlightAware ADS-B
11:35PM 30.2135 -94.6317 242° Southwest 293 337 8,500 -1,080 Descending FlightAware ADS-B
11:36PM 30.1946 -94.6726 242° Southwest 286 329 8,000 -1,020 Descending FlightAware ADS-B
11:36PM 30.1765 -94.7117 242° Southwest 274 315 7,500 -1,080 Descending FlightAware ADS-B
11:37PM 30.1411 -94.7872 242° Southwest 286 329 6,500 -1,080 Descending FlightAware ADS-B
11:38PM 30.1195 -94.8333 242° Southwest 283 326 5,900 -1,140 Descending FlightAware ADS-B
11:39PM 30.0909 -94.8943 241° Southwest 280 322 5,000 -1,140 Descending FlightAware ADS-B
11:39PM 30.0721 -94.9348 242° Southwest 277 319 4,500 -1,080 Descending FlightAware ADS-B
11:40PM 30.0624 -94.9553 241° Southwest 275 316 4,200 -720 Descending FlightAware ADS-B
11:41PM 30.0201 -95.0453 241° Southwest 250 288 3,500 -660 Descending FlightAware ADS-B
11:41PM 30.0108 -95.0649 241° Southwest 242 278 3,300 -600 Descending FlightAware ADS-B
11:41PM 30.0030 -95.0815 242° Southwest 233 268 3,200 -420 Descending FlightAware ADS-B
11:42PM 29.9879 -95.1135 241° Southwest 218 251 3,000 -420 Descending FlightAware ADS-B
11:42PM 29.9809 -95.1285 243° Southwest 208 239 2,900 -360 Descending FlightAware ADS-B
11:42PM 29.9798 -95.1315 247° West 206 237 2,900 -840 Level FlightAware ADS-B
11:42PM 29.9777 -95.1440 264° West 206 237 2,700 -1,080 Descending FlightAware ADS-B
11:43PM 29.9775 -95.1621 270° West 206 237 2,400 -1,080 Descending FlightAware ADS-B
11:43PM 29.9775 -95.1743 270° West 198 228 2,200 -1,080 Descending FlightAware ADS-B
11:43PM 29.9775 -95.1913 270° West 185 213 1,900 -1,080 Descending FlightAware ADS-B
11:43PM 29.9776 -95.2026 271° West 171 197 1,700 -900 Descending FlightAware ADS-B
11:43PM 29.9776 -95.2158 270° West 161 185 1,500 -960 Descending FlightAware ADS-B
11:44PM 29.9776 -95.2301 270° West 139 160 1,200 -720 Descending FlightAware ADS-B
11:44PM 29.9776 -95.2410 270° West 133 153 1,100 -540 Descending FlightAware ADS-B
11:44PM 29.9776 -95.2464 270° West 132 152 1,000 -900 Descending FlightAware ADS-B
11:44PM 29.9776 -95.2513 270° West 132 152 900 -600 Descending FlightAware ADS-B
11:45PM 29.9776 -95.2606 270° West 134 154 800 -600 Descending FlightAware ADS-B
11:45PM 29.9777 -95.2656 271° West 134 154 700 -840 Descending FlightAware ADS-B
11:45PM 29.9776 -95.2765 269° West 136 157 500 -840 Descending FlightAware ADS-B
11:45PM 29.9776 -95.2814 270° West 136 157 400 -840 Descending FlightAware ADS-B
11:45PM 29.9776 -95.2868 270° West 136 157 300 -600 Descending FlightAware ADS-B
11:45PM 29.9776 -95.2970 270° West 137 158 200 -480 Descending FlightAware ADS-B